Time;durP1;ratioP1;P1;durP2;ratioP2;P2;SDS_P1;SDS_P2;PMS_P1;PMS_P2;Temp;Humidity;BMP_temperature;BMP_pressure;BME280_temperature;BME280_humidity;BME280_pressure;Samples;Min_cycle;Max_cycle;Signal;HPM_P1;HPM_P2
2021/10/19 00:00:18;;;;;;;24.02;13.25;;;;;;;13.68;100.00;101845.03;4947835;28;20145;-68
2021/10/19 00:02:46;;;;;;;23.95;14.70;;;;;;;13.69;100.00;101844.09;4944978;28;20070;-68
2021/10/19 00:05:14;;;;;;;21.92;13.18;;;;;;;13.68;100.00;101831.63;4945825;28;20139;-68
2021/10/19 00:07:44;;;;;;;27.05;14.77;;;;;;;13.70;100.00;101835.13;4946175;28;20130;-68
2021/10/19 00:10:14;;;;;;;24.63;12.75;;;;;;;13.68;100.00;101842.34;4945949;28;20061;-68
2021/10/19 00:13:07;;;;;;;25.70;14.30;;;;;;;13.68;100.00;101847.72;4941208;28;20235;-68
2021/10/19 00:15:35;;;;;;;24.92;13.40;;;;;;;13.70;100.00;101836.00;4946602;28;20058;-68
2021/10/19 00:18:04;;;;;;;24.15;14.07;;;;;;;13.71;100.00;101832.41;4947772;28;20106;-68
2021/10/19 00:20:31;;;;;;;30.50;14.48;;;;;;;13.75;100.00;101839.44;4948405;28;20065;-69
2021/10/19 00:22:59;;;;;;;24.15;13.82;;;;;;;13.76;100.00;101833.16;4946814;28;20051;-69
2021/10/19 00:25:27;;;;;;;28.92;15.15;;;;;;;13.74;100.00;101821.59;4947498;28;20138;-68
2021/10/19 00:27:55;;;;;;;25.85;14.85;;;;;;;13.77;100.00;101821.53;4948677;28;20051;-68
2021/10/19 00:30:24;;;;;;;24.58;13.80;;;;;;;13.79;100.00;101825.03;4950142;28;20141;-69
2021/10/19 00:32:52;;;;;;;25.38;13.68;;;;;;;13.77;100.00;101820.63;4951236;28;20089;-68
2021/10/19 00:35:20;;;;;;;23.83;14.10;;;;;;;13.77;100.00;101823.28;4951578;28;20412;-68
2021/10/19 00:37:48;;;;;;;28.80;14.20;;;;;;;13.75;100.00;101827.84;4952604;28;20081;-68
2021/10/19 00:40:16;;;;;;;26.67;15.52;;;;;;;13.65;100.00;101821.84;4950308;28;20054;-68
2021/10/19 00:42:44;;;;;;;29.48;16.08;;;;;;;13.61;100.00;101821.06;4945329;28;20101;-68
2021/10/19 00:45:12;;;;;;;27.25;15.70;;;;;;;13.54;100.00;101822.19;4953238;28;20277;-68
2021/10/19 00:48:06;;;;;;;29.75;15.73;;;;;;;13.54;100.00;101813.25;4950609;28;20050;-68
2021/10/19 00:50:35;;;;;;;30.98;16.48;;;;;;;13.45;100.00;101812.59;4951465;28;20627;-69
2021/10/19 00:53:05;;;;;;;27.75;16.08;;;;;;;13.43;100.00;101809.09;4946697;28;20242;-69
2021/10/19 00:55:33;;;;;;;27.67;16.25;;;;;;;13.42;100.00;101801.97;4951745;28;20196;-69
2021/10/19 00:58:02;;;;;;;30.77;17.45;;;;;;;13.41;100.00;101796.63;4955584;28;20145;-69
2021/10/19 01:00:30;;;;;;;30.05;15.70;;;;;;;13.40;100.00;101801.13;4952731;28;20047;-69
2021/10/19 01:02:58;;;;;;;29.42;15.30;;;;;;;13.43;100.00;101800.16;4947369;28;20158;-69
2021/10/19 01:05:27;;;;;;;28.25;16.25;;;;;;;13.40;100.00;101787.72;4948385;28;20499;-69
2021/10/19 01:07:55;;;;;;;27.83;15.60;;;;;;;13.40;100.00;101789.50;4949996;28;20385;-69
2021/10/19 01:10:24;;;;;;;29.83;16.77;;;;;;;13.42;100.00;101785.00;4952346;28;20051;-68
2021/10/19 01:12:52;;;;;;;28.23;16.60;;;;;;;13.42;100.00;101776.97;4950776;28;20571;-69
2021/10/19 01:15:20;;;;;;;30.10;16.20;;;;;;;13.42;100.00;101771.59;4948972;28;20058;-69
2021/10/19 01:17:50;;;;;;;30.83;17.02;;;;;;;13.43;100.00;101774.25;4948159;28;20078;-69
2021/10/19 01:20:21;;;;;;;29.27;15.98;;;;;;;13.42;100.00;101772.47;4948105;28;20062;-70
2021/10/19 01:22:49;;;;;;;36.55;18.42;;;;;;;13.41;100.00;101770.69;4948892;28;20133;-70
2021/10/19 01:25:19;;;;;;;32.75;17.20;;;;;;;13.40;100.00;101758.25;4949408;28;20137;-69
2021/10/19 01:27:48;;;;;;;32.97;16.73;;;;;;;13.42;100.00;101760.88;4950187;28;20057;-69
2021/10/19 01:30:17;;;;;;;36.47;17.27;;;;;;;13.45;100.00;101756.31;4948218;28;21009;-68
2021/10/19 01:32:49;;;;;;;32.00;16.52;;;;;;;13.45;100.00;101748.25;4955133;28;20460;-68
2021/10/19 01:35:17;;;;;;;33.78;16.85;;;;;;;13.50;100.00;101747.22;4951964;28;20054;-69
2021/10/19 01:37:47;;;;;;;32.58;17.50;;;;;;;13.48;100.00;101747.28;4950798;28;20051;-68
2021/10/19 01:40:16;;;;;;;30.45;15.85;;;;;;;13.49;100.00;101734.78;4949297;28;20136;-68
2021/10/19 01:42:44;;;;;;;30.83;15.55;;;;;;;13.54;100.00;101735.50;4947901;28;20113;-68
2021/10/19 01:45:15;;;;;;;32.20;15.55;;;;;;;13.55;100.00;101740.81;4948618;28;20133;-68
2021/10/19 01:47:44;;;;;;;27.38;15.65;;;;;;;13.55;100.00;101739.94;4950072;28;20058;-69
2021/10/19 01:50:14;;;;;;;31.42;16.52;;;;;;;13.59;100.00;101733.56;4950167;28;20086;-68
2021/10/19 01:52:44;;;;;;;33.28;18.02;;;;;;;13.56;100.00;101739.00;4948832;28;20051;-68
2021/10/19 01:55:14;;;;;;;28.77;15.93;;;;;;;13.55;100.00;101740.81;4949865;28;20286;-68
2021/10/19 01:57:42;;;;;;;28.63;17.13;;;;;;;13.57;100.00;101730.94;4946351;28;20050;-68
2021/10/19 02:00:11;;;;;;;28.42;16.63;;;;;;;13.65;100.00;101733.34;4947325;28;20752;-68
2021/10/19 02:02:39;;;;;;;31.00;16.73;;;;;;;13.66;100.00;101721.72;4950045;28;20066;-69
2021/10/19 02:05:08;;;;;;;35.72;19.00;;;;;;;13.66;100.00;101715.47;4947919;28;20504;-68
2021/10/19 02:08:03;;;;;;;33.60;18.50;;;;;;;13.68;100.00;101710.94;4949516;28;20058;-69
2021/10/19 02:10:34;;;;;;;29.80;17.67;;;;;;;13.67;100.00;101706.50;4950341;28;20300;-69
2021/10/19 02:13:02;;;;;;;33.83;18.75;;;;;;;13.69;100.00;101718.03;4948881;28;20181;-69
2021/10/19 02:15:30;;;;;;;36.22;19.05;;;;;;;13.71;100.00;101710.84;4949087;28;20138;-69
2021/10/19 02:17:58;;;;;;;34.45;19.27;;;;;;;13.72;100.00;101712.59;4949813;28;20046;-69
2021/10/19 02:20:27;;;;;;;35.88;19.98;;;;;;;13.72;100.00;101704.53;4947399;28;20479;-69
2021/10/19 02:22:54;;;;;;;36.13;18.75;;;;;;;13.72;100.00;101701.88;4946388;28;20094;-69
2021/10/19 02:25:23;;;;;;;31.27;18.73;;;;;;;13.75;100.00;101709.81;4948231;28;20088;-69
2021/10/19 02:27:52;;;;;;;37.47;20.55;;;;;;;13.77;100.00;101699.91;4950044;28;20212;-69
2021/10/19 02:30:21;;;;;;;38.97;19.98;;;;;;;13.80;100.00;101702.50;4953144;28;20122;-69
2021/10/19 02:32:49;;;;;;;34.70;20.13;;;;;;;13.77;100.00;101703.50;4949004;28;20149;-69
2021/10/19 02:35:18;;;;;;;37.30;19.00;;;;;;;13.78;100.00;101710.59;4948836;28;20550;-69
2021/10/19 02:37:46;;;;;;;32.58;18.33;;;;;;;13.79;100.00;101708.78;4949009;28;20876;-69
2021/10/19 02:40:15;;;;;;;36.33;20.35;;;;;;;13.79;100.00;101709.69;4944728;28;20054;-69
2021/10/19 02:42:44;;;;;;;34.22;18.13;;;;;;;13.78;100.00;101705.22;4948911;28;20058;-69
2021/10/19 02:45:14;;;;;;;37.65;20.52;;;;;;;13.78;100.00;101699.88;4950154;28;20053;-69
2021/10/19 02:47:42;;;;;;;38.47;19.88;;;;;;;13.77;100.00;101695.44;4950438;28;20138;-69
2021/10/19 02:50:12;;;;;;;37.85;19.60;;;;;;;13.76;100.00;101690.13;4943798;28;20145;-69
2021/10/19 02:52:41;;;;;;;36.22;20.50;;;;;;;13.78;100.00;101681.09;4943494;28;20105;-69
2021/10/19 02:55:12;;;;;;;33.20;18.60;;;;;;;13.79;100.00;101664.09;4946371;28;20835;-68
2021/10/19 02:58:04;;;;;;;36.55;21.38;;;;;;;13.78;100.00;101662.31;4951527;28;20094;-68
2021/10/19 03:00:33;;;;;;;38.55;20.17;;;;;;;13.79;100.00;101656.03;4940373;28;20579;-68
2021/10/19 03:03:01;;;;;;;35.97;20.75;;;;;;;13.75;100.00;101657.03;4943163;28;20043;-69
2021/10/19 03:05:29;;;;;;;40.35;21.95;;;;;;;13.73;100.00;101637.44;4949367;28;20042;-69
2021/10/19 03:07:57;;;;;;;34.72;20.90;;;;;;;13.73;100.00;101653.53;4948986;28;20088;-68
2021/10/19 03:10:25;;;;;;;38.58;20.15;;;;;;;13.76;100.00;101644.53;4945444;28;20448;-69
2021/10/19 03:12:52;;;;;;;38.15;19.52;;;;;;;13.77;100.00;101652.53;4944203;28;20117;-68
2021/10/19 03:15:23;;;;;;;36.72;19.77;;;;;;;13.82;100.00;101649.69;4947106;28;20126;-68
2021/10/19 03:18:16;;;;;;;;;;;;;;;13.77;100.00;101640.91;4947340;28;20062;-72
2021/10/19 03:20:44;;;;;;;34.03;19.35;;;;;;;13.80;100.00;101643.50;4947914;28;20162;-72
2021/10/19 03:23:12;;;;;;;35.95;18.70;;;;;;;13.76;100.00;101640.03;4949208;28;20562;-72
2021/10/19 03:25:41;;;;;;;37.72;20.92;;;;;;;13.76;100.00;101642.72;4949124;28;20076;-72
2021/10/19 03:28:09;;;;;;;34.22;18.52;;;;;;;13.79;100.00;101649.78;4950858;28;20142;-72
2021/10/19 03:30:37;;;;;;;33.78;17.98;;;;;;;13.79;100.00;101649.78;4950719;28;20051;-73
2021/10/19 03:33:05;;;;;;;34.97;19.23;;;;;;;13.81;100.00;101647.94;4948797;28;20039;-72
2021/10/19 03:35:58;;;;;;;31.10;18.00;;;;;;;13.81;100.00;101656.00;4946921;28;20567;-72
2021/10/19 03:38:26;;;;;;;34.58;18.70;;;;;;;13.80;100.00;101649.72;4950196;28;20065;-73
2021/10/19 03:40:54;;;;;;;31.05;17.77;;;;;;;13.83;100.00;101657.69;4947624;28;20047;-73
2021/10/19 03:43:21;;;;;;;33.88;20.48;;;;;;;13.85;100.00;101667.50;4944817;28;20110;-72
2021/10/19 03:45:50;;;;;;;32.65;17.83;;;;;;;13.85;100.00;101659.44;4949354;28;20062;-73
2021/10/19 03:48:17;;;;;;;32.58;18.38;;;;;;;13.88;100.00;101662.91;4949675;28;20138;-72
2021/10/19 03:50:45;;;;;;;33.83;18.08;;;;;;;13.86;100.00;101667.44;4951330;28;20046;-72
2021/10/19 03:53:15;;;;;;;30.90;17.08;;;;;;;13.85;100.00;101665.69;4940188;28;20051;-68
2021/10/19 03:55:43;;;;;;;30.92;17.27;;;;;;;13.82;100.00;101665.78;4946165;28;20508;-68
2021/10/19 03:58:35;;;;;;;27.80;15.02;;;;;;;13.85;100.00;101672.84;4947159;28;20058;-68
2021/10/19 04:01:03;;;;;;;28.13;14.90;;;;;;;13.83;100.00;101663.03;4947133;28;20061;-68
2021/10/19 04:03:31;;;;;;;25.52;14.40;;;;;;;13.84;100.00;101666.59;4950487;28;20509;-68
2021/10/19 04:05:59;;;;;;;25.60;14.73;;;;;;;13.85;100.00;101662.13;4951537;28;20078;-68
2021/10/19 04:08:28;;;;;;;25.38;14.25;;;;;;;13.87;100.00;101666.50;4955282;28;20066;-68
2021/10/19 04:10:57;;;;;;;25.40;13.43;;;;;;;13.86;100.00;101659.41;4945322;28;20070;-68
2021/10/19 04:13:25;;;;;;;25.92;13.50;;;;;;;13.87;100.00;101660.25;4953807;28;20772;-70
2021/10/19 04:15:54;;;;;;;23.48;12.45;;;;;;;13.88;100.00;101668.28;4947497;28;20114;-68
2021/10/19 04:18:22;;;;;;;20.50;11.77;;;;;;;13.87;100.00;101660.25;4949870;28;20134;-69
2021/10/19 04:20:50;;;;;;;20.80;11.85;;;;;;;13.88;100.00;101660.22;4947787;28;20142;-68
2021/10/19 04:23:18;;;;;;;23.60;12.73;;;;;;;13.87;100.00;101657.59;4950967;28;20055;-69
2021/10/19 04:25:47;;;;;;;22.77;12.60;;;;;;;13.90;100.00;101650.31;4952534;28;20043;-68
2021/10/19 04:28:15;;;;;;;25.33;14.45;;;;;;;13.85;100.00;101654.94;4940685;28;20082;-68
2021/10/19 04:30:45;;;;;;;24.08;13.50;;;;;;;13.93;100.00;101670.81;4954138;28;20149;-67
2021/10/19 04:33:13;;;;;;;22.08;11.98;;;;;;;13.93;100.00;101663.63;4950771;28;20129;-68
2021/10/19 04:35:41;;;;;;;21.45;12.43;;;;;;;13.95;100.00;101666.25;4948512;28;20054;-67
2021/10/19 04:38:09;;;;;;;22.58;12.65;;;;;;;13.91;100.00;101657.44;4953945;28;20484;-68
2021/10/19 04:40:37;;;;;;;22.77;12.70;;;;;;;13.92;100.00;101666.34;4951641;28;20051;-68
2021/10/19 04:43:07;;;;;;;23.60;12.45;;;;;;;13.97;100.00;101664.41;4954907;28;20071;-68
2021/10/19 04:45:35;;;;;;;23.35;14.25;;;;;;;13.97;100.00;101657.22;4953211;28;20487;-68
2021/10/19 04:48:04;;;;;;;20.90;12.52;;;;;;;14.01;100.00;101660.69;4949770;28;20078;-70
2021/10/19 04:50:34;;;;;;;23.80;12.80;;;;;;;14.02;100.00;101649.91;4947138;28;20263;-67
2021/10/19 04:53:02;;;;;;;26.45;13.55;;;;;;;13.99;100.00;101644.63;4948808;28;20047;-69
2021/10/19 04:55:30;;;;;;;27.25;14.52;;;;;;;13.97;100.00;101646.50;4947164;28;20214;-67
2021/10/19 04:57:57;;;;;;;24.63;13.95;;;;;;;13.95;100.00;101634.94;4952162;28;20484;-68
2021/10/19 05:00:28;;;;;;;26.42;14.38;;;;;;;13.99;100.00;101625.84;4950531;28;20055;-68
2021/10/19 05:02:57;;;;;;;29.42;14.35;;;;;;;13.99;100.00;101628.53;4952836;28;20065;-71
2021/10/19 05:05:25;;;;;;;27.33;14.27;;;;;;;14.00;100.00;101629.44;4949662;28;20122;-68
2021/10/19 05:07:53;;;;;;;28.20;15.77;;;;;;;14.01;100.00;101628.47;4950197;28;20682;-68
2021/10/19 05:10:21;;;;;;;25.80;14.52;;;;;;;13.99;100.00;101639.25;4948845;28;20166;-68
2021/10/19 05:12:49;;;;;;;24.63;13.93;;;;;;;14.01;100.00;101628.47;4947103;28;20063;-68
2021/10/19 05:15:17;;;;;;;24.70;13.95;;;;;;;14.01;100.00;101625.78;4948924;28;20054;-68
2021/10/19 05:17:55;;;;;;;28.10;15.32;;;;;;;14.01;100.00;101629.38;4954713;28;20138;-68
2021/10/19 05:20:23;;;;;;;28.58;15.77;;;;;;;14.02;100.00;101631.09;4954172;28;20058;-69
2021/10/19 05:22:54;;;;;;;27.23;15.10;;;;;;;14.04;100.00;101628.38;4951730;28;20165;-69
2021/10/19 05:25:22;;;;;;;30.10;16.10;;;;;;;14.03;100.00;101623.97;4952417;28;20086;-69
2021/10/19 05:27:50;;;;;;;27.63;15.65;;;;;;;14.05;100.00;101621.22;4948887;28;20141;-68
2021/10/19 05:30:21;;;;;;;33.50;16.70;;;;;;;14.07;100.00;101628.28;4950422;28;20057;-68
2021/10/19 05:32:50;;;;;;;29.50;17.27;;;;;;;14.08;100.00;101621.09;4949460;28;20535;-68
2021/10/19 05:35:21;;;;;;;33.25;17.40;;;;;;;14.07;100.00;101622.03;4949119;28;20058;-67
2021/10/19 05:38:13;;;;;;;27.55;15.80;;;;;;;14.06;100.00;101615.78;4947174;28;20533;-67
2021/10/19 05:40:41;;;;;;;37.78;18.27;;;;;;;14.13;100.00;101628.09;4954882;28;20422;-68
2021/10/19 05:43:09;;;;;;;32.35;17.05;;;;;;;14.13;100.00;101627.19;4947971;28;20122;-68
2021/10/19 05:45:40;;;;;;;32.10;18.48;;;;;;;14.11;100.00;101632.59;4949555;28;20047;-68
2021/10/19 05:48:09;;;;;;;27.38;15.98;;;;;;;14.13;100.00;101630.75;4949883;28;20519;-67
2021/10/19 05:50:39;;;;;;;33.47;18.27;;;;;;;14.18;100.00;101625.22;4950762;28;20141;-67
2021/10/19 05:53:16;;;;;;;31.35;16.98;;;;;;;14.15;100.00;101631.59;4944647;28;20142;-68
2021/10/19 05:55:44;;;;;;;35.20;19.75;;;;;;;14.14;100.00;101619.09;4949391;28;20475;-68
2021/10/19 05:58:12;;;;;;;35.92;19.17;;;;;;;14.20;100.00;101621.56;4946654;28;20061;-68
2021/10/19 06:00:49;;;;;;;35.08;18.02;;;;;;;14.19;100.00;101622.47;4943503;28;20058;-71
2021/10/19 06:03:19;;;;;;;36.03;18.58;;;;;;;14.17;100.00;101613.63;4950376;28;20069;-71
2021/10/19 06:05:47;;;;;;;35.78;18.52;;;;;;;14.18;100.00;101612.69;4948043;28;20054;-71
2021/10/19 06:08:15;;;;;;;34.45;18.48;;;;;;;14.23;100.00;101611.66;4949851;28;20057;-73
2021/10/19 06:10:43;;;;;;;38.05;18.92;;;;;;;14.22;100.00;101624.19;4950113;28;20113;-71
2021/10/19 06:13:11;;;;;;;37.55;18.88;;;;;;;14.27;100.00;101616.84;4949271;28;20061;-73
2021/10/19 06:15:40;;;;;;;36.53;17.75;;;;;;;14.26;100.00;101607.03;4950767;28;20518;-72
2021/10/19 06:18:08;;;;;;;37.63;18.83;;;;;;;14.28;100.00;101609.69;4951805;28;20072;-68
2021/10/19 06:20:37;;;;;;;35.92;18.60;;;;;;;14.29;100.00;101609.63;4947820;28;20113;-68
2021/10/19 06:23:05;;;;;;;38.47;18.48;;;;;;;14.29;100.00;101612.31;4943123;28;21654;-68
2021/10/19 06:25:33;;;;;;;38.00;19.40;;;;;;;14.31;100.00;101612.25;4951551;28;20140;-68
2021/10/19 06:28:01;;;;;;;32.78;17.58;;;;;;;14.31;100.00;101614.94;4946404;28;20042;-68
2021/10/19 06:30:29;;;;;;;35.58;18.58;;;;;;;14.33;100.00;101613.06;4949133;28;20129;-68
2021/10/19 06:32:57;;;;;;;33.90;18.23;;;;;;;14.32;100.00;101614.00;4948067;28;20480;-68
2021/10/19 06:35:25;;;;;;;35.35;18.17;;;;;;;14.34;100.00;101612.16;4946726;28;20062;-68
2021/10/19 06:37:54;;;;;;;32.88;17.80;;;;;;;14.35;100.00;101608.53;4952562;28;20456;-72
2021/10/19 06:40:22;;;;;;;32.72;17.92;;;;;;;14.37;100.00;101617.41;4945356;28;20164;-71
2021/10/19 06:42:50;;;;;;;30.15;15.52;;;;;;;14.36;100.00;101611.16;4951546;28;20175;-71
2021/10/19 06:45:18;;;;;;;34.90;17.63;;;;;;;14.38;100.00;101620.03;4947954;28;20278;-72
2021/10/19 06:47:46;;;;;;;29.58;16.38;;;;;;;14.41;100.00;101618.19;4947138;28;20049;-72
2021/10/19 06:50:14;;;;;;;30.65;16.30;;;;;;;14.42;100.00;101619.91;4949370;28;20395;-72
2021/10/19 06:52:42;;;;;;;27.58;15.20;;;;;;;14.46;100.00;101619.75;4944627;28;20461;-68
2021/10/19 06:55:12;;;;;;;32.83;16.65;;;;;;;14.45;100.00;101620.69;4948434;28;20063;-69
2021/10/19 06:57:42;;;;;;;28.02;15.30;;;;;;;14.46;100.00;101635.88;4948107;28;20169;-68
2021/10/19 07:00:13;;;;;;;29.92;16.17;;;;;;;14.49;100.00;101634.88;4947517;28;20058;-68
2021/10/19 07:02:44;;;;;;;27.23;15.40;;;;;;;14.49;100.00;101633.09;4947565;28;20583;-68
2021/10/19 07:05:12;;;;;;;32.33;16.00;;;;;;;14.49;100.00;101627.72;4949135;28;20113;-68
2021/10/19 07:07:42;;;;;;;28.63;15.38;;;;;;;14.54;100.00;101635.59;4946626;28;20282;-68
2021/10/19 07:10:12;;;;;;;29.75;15.88;;;;;;;14.54;100.00;101628.41;4950079;28;20182;-68
2021/10/19 07:12:40;;;;;;;31.58;15.60;;;;;;;14.57;100.00;101625.63;4943795;28;20542;-68
2021/10/19 07:15:12;;;;;;;30.23;15.93;;;;;;;14.57;100.00;101630.09;4947962;28;20118;-68
2021/10/19 07:17:41;;;;;;;26.77;14.98;;;;;;;14.60;100.00;101619.28;4949198;28;20058;-68
2021/10/19 07:20:11;;;;;;;30.73;15.63;;;;;;;14.61;100.00;101618.38;4947285;28;20133;-68
2021/10/19 07:22:40;;;;;;;24.20;13.60;;;;;;;14.62;100.00;101624.59;4946570;28;20055;-69
2021/10/19 07:25:09;;;;;;;26.80;14.48;;;;;;;14.67;100.00;101633.38;4950001;28;20739;-68
2021/10/19 07:27:44;;;;;;;;;;;;;;;14.71;100.00;101637.69;4952199;28;20143;-69
2021/10/19 07:30:13;;;;;;;25.52;13.93;;;;;;;14.75;100.00;101626.78;4950497;28;19985;-68
2021/10/19 07:32:42;;;;;;;27.25;14.52;;;;;;;14.72;100.00;101642.13;4938602;28;20137;-69
2021/10/19 07:35:10;;;;;;;26.80;14.27;;;;;;;14.72;100.00;101631.41;4952856;28;20085;-72
2021/10/19 07:37:39;;;;;;;23.85;13.15;;;;;;;14.75;100.00;101636.66;4946832;28;20054;-72
2021/10/19 07:40:09;;;;;;;25.30;13.75;;;;;;;14.75;100.00;101626.78;4952459;28;20483;-73
2021/10/19 07:42:39;;;;;;;26.17;13.77;;;;;;;14.78;100.00;101633.88;4947550;28;20087;-73
2021/10/19 07:45:13;;;;;;;24.73;13.63;;;;;;;14.77;100.00;101633.91;4942499;28;20086;-73
2021/10/19 07:47:43;;;;;;;25.60;14.23;;;;;;;14.79;100.00;101629.34;4949693;28;20103;-73
2021/10/19 07:50:12;;;;;;;27.67;14.63;;;;;;;14.82;100.00;101629.25;4943787;28;20072;-69
2021/10/19 07:52:42;;;;;;;24.40;13.95;;;;;;;14.82;100.00;101630.13;4942764;28;20051;-69
2021/10/19 07:55:11;;;;;;;22.48;12.90;;;;;;;14.84;100.00;101628.25;4948997;28;20133;-68
2021/10/19 07:57:45;;;;;;;23.55;13.35;;;;;;;14.84;100.00;101633.63;4943840;28;20766;-68
2021/10/19 08:00:16;;;;;;;23.55;12.25;;;;;;;14.87;100.00;101620.06;4949042;28;20047;-68
2021/10/19 08:02:44;;;;;;;23.13;12.68;;;;;;;14.92;100.00;101619.91;4941633;28;20462;-68
2021/10/19 08:05:14;;;;;;;21.08;12.77;;;;;;;14.97;100.00;101617.06;4946035;28;20062;-68
2021/10/19 08:07:43;;;;;;;24.38;12.45;;;;;;;14.96;100.00;101616.16;4947513;28;20695;-68
2021/10/19 08:10:14;;;;;;;23.35;11.98;;;;;;;14.99;100.00;101613.38;4944870;28;20051;-68
2021/10/19 08:12:42;;;;;;;20.02;11.07;;;;;;;15.03;100.00;101611.44;4941718;28;20482;-68
2021/10/19 08:15:12;;;;;;;20.77;11.07;;;;;;;15.05;100.00;101614.94;4950670;28;20047;-69
2021/10/19 08:17:42;;;;;;;23.70;12.40;;;;;;;15.08;100.00;101606.75;4943514;28;20049;-68
2021/10/19 08:20:11;;;;;;;21.80;11.80;;;;;;;15.18;100.00;101618.03;4943698;28;20166;-72
2021/10/19 08:22:39;;;;;;;21.15;11.93;;;;;;;15.15;100.00;101619.00;4949076;28;20268;-71
2021/10/19 08:25:09;;;;;;;27.17;13.65;;;;;;;15.17;100.00;101606.41;4950358;28;20050;-72
2021/10/19 08:27:40;;;;;;;24.60;13.18;;;;;;;15.16;100.00;101609.16;4947374;28;20053;-72
2021/10/19 08:30:10;;;;;;;25.45;13.50;;;;;;;15.19;100.00;101615.28;4944926;28;20057;-71
2021/10/19 08:32:39;;;;;;;25.77;14.38;;;;;;;15.23;100.00;101616.03;4946173;28;20089;-72
2021/10/19 08:35:11;;;;;;;24.98;12.50;;;;;;;15.27;100.00;101618.56;4944603;28;20137;-73
2021/10/19 08:37:40;;;;;;;25.38;12.80;;;;;;;15.28;100.00;101616.72;4944547;28;20445;-72
2021/10/19 08:40:10;;;;;;;27.15;13.43;;;;;;;15.29;100.00;101618.50;4942822;28;20061;-73
2021/10/19 08:42:44;;;;;;;26.98;14.00;;;;;;;15.28;100.00;101617.59;4944601;28;20523;-72
2021/10/19 08:45:14;;;;;;;23.75;13.00;;;;;;;15.30;100.00;101618.41;4944996;28;20086;-72
2021/10/19 08:47:43;;;;;;;22.77;12.57;;;;;;;15.34;100.00;101616.50;4939466;28;20078;-72
2021/10/19 08:50:14;;;;;;;26.00;13.45;;;;;;;15.38;100.00;101614.56;4954605;28;20138;-72
2021/10/19 08:52:42;;;;;;;25.30;13.85;;;;;;;15.42;100.00;101621.56;4944938;28;20058;-73
2021/10/19 08:55:10;;;;;;;26.98;13.15;;;;;;;15.45;100.00;101618.75;4949499;28;20113;-73
2021/10/19 08:58:03;;;;;;;24.50;13.63;;;;;;;15.50;100.00;101614.06;4946676;28;20597;-72
2021/10/19 09:00:31;;;;;;;25.35;14.10;;;;;;;15.53;100.00;101613.94;4947821;28;20527;-72
2021/10/19 09:03:00;;;;;;;24.35;13.18;;;;;;;15.53;100.00;101608.56;4954494;28;20233;-74
2021/10/19 09:05:29;;;;;;;24.95;14.00;;;;;;;15.56;100.00;101613.81;4954303;28;20191;-74
2021/10/19 09:07:59;;;;;;;27.05;14.10;;;;;;;15.56;100.00;101621.00;4950955;28;20157;-73
2021/10/19 09:10:28;;;;;;;32.30;15.38;;;;;;;15.61;100.00;101617.22;4947051;28;20121;-72
2021/10/19 09:12:58;;;;;;;26.45;13.85;;;;;;;15.63;100.00;101623.38;4949084;28;20047;-73
2021/10/19 09:15:30;;;;;;;26.13;14.45;;;;;;;15.70;100.00;101621.34;4949152;28;20058;-73
2021/10/19 09:18:01;;;;;;;30.65;15.25;;;;;;;15.74;100.00;101619.38;4947114;28;20053;-73
2021/10/19 09:20:34;;;;;;;30.60;15.30;;;;;;;15.81;100.00;101627.16;4948401;28;20038;-73
2021/10/19 09:23:04;;;;;;;30.70;15.13;;;;;;;15.83;100.00;101633.38;4947481;28;20430;-73
2021/10/19 09:25:33;;;;;;;26.80;14.30;;;;;;;15.86;100.00;101624.28;4950143;28;20236;-72
2021/10/19 09:28:02;;;;;;;34.72;18.08;;;;;;;15.88;100.00;101635.84;4945196;28;20110;-72
2021/10/19 09:30:35;;;;;;;41.35;18.40;;;;;;;15.89;100.00;101632.22;4948046;28;20066;-72
2021/10/19 09:33:03;;;;;;;37.30;19.67;;;;;;;15.95;100.00;101626.56;4946414;28;20059;-73
2021/10/19 09:35:33;;;;;;;34.20;17.15;;;;;;;16.02;100.00;101628.09;4944446;28;20057;-72
2021/10/19 09:38:04;;;;;;;35.03;19.13;;;;;;;16.08;100.00;101629.63;4946352;28;20319;-72
2021/10/19 09:40:39;;;;;;;35.95;20.52;;;;;;;16.10;100.00;101633.13;4945162;28;20132;-73
2021/10/19 09:43:08;;;;;;;42.40;21.17;;;;;;;16.19;100.00;101626.47;4947403;28;20526;-71
2021/10/19 09:45:36;;;;;;;37.65;19.83;;;;;;;16.21;100.00;101635.38;4950899;28;20142;-71
2021/10/19 09:48:06;;;;;;;39.75;20.48;;;;;;;16.28;100.00;101634.16;4946205;28;20110;-72
2021/10/19 09:50:36;;;;;;;39.22;20.65;;;;;;;16.26;100.00;101636.06;4949387;28;20141;-72
2021/10/19 09:53:05;;;;;;;36.75;19.50;;;;;;;16.26;100.00;101638.75;4941029;28;20054;-72
2021/10/19 09:55:33;;;;;;;38.00;18.73;;;;;;;16.28;100.00;101630.56;4945906;28;20105;-72
2021/10/19 09:58:01;;;;;;;36.80;18.02;;;;;;;16.27;100.00;101627.03;4944126;28;20508;-71
2021/10/19 10:00:32;;;;;;;26.73;14.48;;;;;;;16.33;100.00;101623.16;4946499;28;20047;-71
2021/10/19 10:03:03;;;;;;;29.23;14.57;;;;;;;16.35;100.00;101626.69;4947215;28;20427;-71
2021/10/19 10:05:32;;;;;;;29.30;13.75;;;;;;;16.36;100.00;101620.34;4949671;28;20063;-71
2021/10/19 10:08:02;;;;;;;26.13;12.70;;;;;;;16.35;100.00;101632.94;4944900;28;20369;-71
2021/10/19 10:10:31;;;;;;;23.77;12.85;;;;;;;16.37;100.00;101620.28;4950386;28;20051;-73
2021/10/19 10:13:00;;;;;;;22.77;12.65;;;;;;;16.39;100.00;101631.84;4943723;28;20137;-71
2021/10/19 10:15:33;;;;;;;26.05;12.65;;;;;;;16.41;100.00;101635.38;4950350;28;20174;-71
2021/10/19 10:18:02;;;;;;;25.15;12.73;;;;;;;16.43;100.00;101630.81;4950142;28;20074;-71
2021/10/19 10:20:33;;;;;;;24.73;12.82;;;;;;;16.40;100.00;101636.31;4949269;28;20499;-71
2021/10/19 10:23:15;;;;;;;23.63;12.98;;;;;;;16.43;100.00;101638.88;4952425;28;20047;-71
2021/10/19 10:25:44;;;;;;;27.70;14.55;;;;;;;16.46;100.00;101629.78;4947735;28;20537;-70
2021/10/19 10:28:15;;;;;;;25.05;13.50;;;;;;;16.44;100.00;101627.16;4951339;28;20059;-71
2021/10/19 10:30:46;;;;;;;27.92;14.07;;;;;;;16.43;100.00;101625.41;4947457;28;20431;-71
2021/10/19 10:33:14;;;;;;;27.55;15.35;;;;;;;16.45;100.00;101630.75;4951169;28;20078;-70
2021/10/19 10:35:44;;;;;;;32.60;15.57;;;;;;;16.48;100.00;101624.31;4951376;28;20082;-71
2021/10/19 10:38:14;;;;;;;31.75;16.85;;;;;;;16.50;100.00;101628.72;4949660;28;20106;-71
2021/10/19 10:41:10;;;;;;;26.90;14.27;;;;;;;16.55;100.00;101625.78;4949784;28;20186;-70
2021/10/19 10:43:38;;;;;;;26.10;14.98;;;;;;;16.53;100.00;101623.19;4950572;28;20823;-71
2021/10/19 10:46:11;;;;;;;24.75;13.13;;;;;;;16.53;100.00;101630.38;4954426;28;20055;-71
2021/10/19 10:48:40;;;;;;;25.23;12.65;;;;;;;16.56;100.00;101625.72;4940551;28;20634;-71
2021/10/19 10:51:10;;;;;;;26.73;14.98;;;;;;;16.59;100.00;101619.34;4949585;28;20078;-68
2021/10/19 10:53:42;;;;;;;25.90;14.27;;;;;;;16.58;100.00;101621.16;4943060;28;20736;-68
2021/10/19 10:56:11;;;;;;;27.15;13.60;;;;;;;16.62;100.00;101625.47;4949087;28;20129;-67
2021/10/19 10:58:41;;;;;;;24.23;12.73;;;;;;;16.66;100.00;101618.13;4947581;28;20082;-67
2021/10/19 11:01:14;;;;;;;26.30;12.93;;;;;;;16.68;100.00;101621.59;4947104;28;20121;-67
2021/10/19 11:03:42;;;;;;;22.60;12.10;;;;;;;16.71;100.00;101618.78;4948379;28;20055;-70
2021/10/19 11:06:15;;;;;;;21.88;11.88;;;;;;;16.74;100.00;101624.03;4952269;28;20117;-70
2021/10/19 11:08:47;;;;;;;20.83;12.00;;;;;;;16.73;100.00;101616.88;4947580;28;20061;-70
2021/10/19 11:11:17;;;;;;;22.45;12.32;;;;;;;16.72;100.00;101611.56;4948342;28;20113;-70
2021/10/19 11:13:52;;;;;;;25.25;13.30;;;;;;;16.74;100.00;101621.34;4946716;28;20050;-70